Latest Weather Observations for Sydney Olympic Park

IDN60901

Issued at 10:05 pm EST Saturday 20 September 2014 (issued every 10 minutes, with the page automatically refreshed every 10 minutes)

About weather observations | Map of Sydney area stations | Latest observations for Sydney area | Other Formats
Station Details ID: 066212 Name: SYDNEY OLYMPIC PARK AWS (ARCHERY CENTRE) Lat: -33.83 Lon: 151.07 Height: 4.0 m
Data from the previous 72 hours. | See also: Recent months at Sydney Olympic Park
Date/Time
EST
Tmp

°C
App
Tmp
°C
Dew
Point
°C
Rel
Hum
%
Delta-T

°C
Wind Press
QNH
hPa
Press
MSL
hPa
Rain
since
9 am
mm
Dir
 
Spd
km/h
Gust
km/h
Spd
kts
Gust
kts
20/10:00pm 11.5 10.6 10.6 94 0.5 W 6 9 3 5 - - 0.0
20/09:30pm 10.9 9.8 10.1 95 0.4 WSW 6 7 3 4 - - 0.0
20/09:00pm 11.2 10.1 10.1 93 0.6 WSW 6 6 3 3 - - 0.0
20/08:30pm 11.8 11.8 9.7 87 1.1 CALM 0 6 0 3 - - 0.0
20/08:00pm 12.5 12.6 10.0 85 1.3 CALM 0 0 0 0 - - 0.0
20/07:30pm 13.1 12.2 9.2 77 2.0 S 4 6 2 3 - - 0.0
20/07:00pm 14.0 12.5 9.0 72 2.5 SSE 7 11 4 6 - - 0.0
20/06:30pm 14.3 12.3 8.7 69 2.8 SSE 9 13 5 7 - - 0.0
20/06:00pm 14.9 12.2 8.8 67 3.1 SSE 13 20 7 11 - - 0.0
20/05:30pm 15.4 12.2 8.4 63 3.5 SE 15 26 8 14 - - 0.0
20/05:00pm 16.2 12.6 8.2 59 4.0 SE 17 24 9 13 - - 0.0
20/04:30pm 16.8 13.3 7.4 54 4.7 SSE 15 22 8 12 - - 0.0
20/04:00pm 17.0 12.8 7.6 54 4.7 SSE 19 30 10 16 - - 0.0
20/03:30pm 17.0 13.0 8.2 56 4.5 SSE 19 30 10 16 - - 0.0
20/03:00pm 17.4 13.4 8.3 55 4.7 SSE 19 26 10 14 - - 0.0
20/02:30pm 17.0 12.9 8.7 58 4.3 SE 20 30 11 16 - - 0.0
20/02:00pm 18.1 14.3 9.2 56 4.6 ESE 19 30 10 16 - - 0.0
20/01:30pm 17.9 13.4 8.7 55 4.8 SE 22 33 12 18 - - 0.0
20/01:00pm 17.6 14.4 8.5 55 4.7 SSE 15 22 8 12 - - 0.0
20/12:30pm 18.3 14.8 8.8 54 4.9 SSE 17 24 9 13 - - 0.0
20/12:00pm 17.5 14.5 9.4 59 4.2 SSE 15 26 8 14 - - 0.0
20/11:30am 17.5 14.7 9.9 61 4.0 SSE 15 26 8 14 - - 0.0
20/11:00am 18.2 15.0 9.8 58 4.4 SSE 17 26 9 14 - - 0.0
20/10:30am 17.6 14.6 9.2 58 4.4 SSE 15 26 8 14 - - 0.0
20/10:00am 17.8 15.2 9.2 57 4.5 SSE 13 22 7 12 - - 0.0
20/09:30am 16.7 14.1 7.9 56 4.4 S 11 19 6 10 - - 0.0
20/09:00am 15.7 13.6 6.7 55 4.4 WNW 7 11 4 6 - - 0.0
20/08:30am 14.5 12.6 7.5 63 3.5 WNW 7 11 4 6 - - 0.0
20/08:00am 12.4 10.4 7.3 71 2.5 W 7 13 4 7 - - 0.0
20/07:30am 10.7 8.6 8.1 84 1.3 W 9 15 5 8 - - 0.0
20/07:00am 8.8 7.1 8.5 98 0.1 WNW 7 11 4 6 - - 0.0
20/06:30am 7.4 5.4 7.1 98 0.1 NW 7 9 4 5 - - 0.0
20/06:00am 7.1 5.2 6.8 98 0.1 NW 6 7 3 4 - - 0.0
20/05:30am 7.0 5.1 6.7 98 0.1 NW 6 9 3 5 - - 0.0
20/05:00am 6.8 4.7 6.5 98 0.1 NW 7 9 4 5 - - 0.0
20/04:30am 6.8 4.7 6.5 98 0.1 NW 7 9 4 5 - - 0.0
20/04:00am 6.6 4.6 6.3 98 0.1 NW 6 7 3 4 - - 0.0
20/03:30am 6.5 5.6 6.1 97 0.2 CALM 0 6 0 3 - - 0.0
20/03:00am 6.8 6.0 6.4 97 0.2 CALM 0 0 0 0 - - 0.0
20/02:30am 7.1 6.3 6.7 97 0.2 CALM 0 0 0 0 - - 0.0
20/02:00am 7.2 6.5 6.8 97 0.2 CALM 0 0 0 0 - - 0.0
20/01:30am 7.4 6.7 7.0 97 0.2 CALM 0 0 0 0 - - 0.0
20/01:00am 7.6 6.2 7.2 97 0.2 WNW 4 6 2 3 - - 0.0
20/12:30am 7.9 7.3 7.5 97 0.2 CALM 0 0 0 0 - - 0.0
20/12:00am 8.4 7.8 7.6 95 0.4 WNW 0 0 0 0 - - 0.0
 
Date/Time
EST
Tmp

°C
App
Tmp
°C
Dew
Point
°C
Rel
Hum
%
Delta-T

°C
Wind Press
QNH
hPa
Press
MSL
hPa
Rain
since
9 am
mm
Dir
 
Spd
km/h
Gust
km/h
Spd
kts
Gust
kts
19/11:30pm 8.8 8.3 8.0 95 0.4 CALM 0 0 0 0 - - 0.0
19/11:00pm 9.5 9.1 8.3 92 0.6 CALM 0 0 0 0 - - 0.0
19/10:30pm 9.5 9.1 8.4 93 0.5 CALM 0 0 0 0 - - 0.0
19/10:00pm 9.9 9.5 8.3 90 0.8 CALM 0 4 0 2 - - 0.0
19/09:30pm 10.5 10.2 8.8 89 0.8 CALM 0 0 0 0 - - 0.0
19/09:00pm 11.1 10.7 8.3 83 1.4 CALM 0 0 0 0 - - 0.0
19/08:30pm 12.2 10.8 8.7 79 1.7 SSE 6 7 3 4 - - 0.0
19/08:00pm 12.9 11.0 7.6 70 2.6 SE 7 11 4 6 - - 0.0
19/07:30pm 13.5 11.6 7.7 68 2.9 SE 7 11 4 6 - - 0.0
19/07:00pm 13.9 11.6 7.4 65 3.2 SE 9 13 5 7 - - 0.0
19/06:30pm 14.4 11.8 6.0 57 4.0 SE 9 13 5 7 - - 0.0
19/06:00pm 15.4 12.0 6.1 54 4.5 ESE 13 20 7 11 - - 0.0
19/05:30pm 16.1 12.0 6.0 51 4.9 ESE 17 24 9 13 - - 0.0
19/05:00pm 16.5 12.9 6.6 52 4.9 ESE 15 24 8 13 - - 0.0
19/04:30pm 16.9 12.3 6.4 50 5.1 ESE 20 32 11 17 - - 0.0
19/04:00pm 18.8 16.1 2.6 34 7.5 ESE 6 20 3 11 - - 0.0
19/03:30pm 20.0 16.8 -0.6 25 9.0 NNW 6 13 3 7 - - 0.0
19/03:00pm 19.7 16.7 1.7 30 8.2 NNW 7 13 4 7 - - 0.0
19/02:30pm 20.5 18.0 4.5 35 7.8 NW 7 15 4 8 - - 0.0
19/02:00pm 19.4 15.8 0.9 29 8.3 W 9 17 5 9 - - 0.0
19/01:30pm 20.4 18.1 5.6 38 7.3 W 7 13 4 7 - - 0.0
19/01:00pm 18.8 15.8 0.9 30 8.0 W 6 15 3 8 - - 0.0
19/12:30pm 19.1 16.0 3.7 36 7.3 SSW 9 19 5 10 - - 0.0
19/12:00pm 19.0 16.3 5.8 42 6.5 NW 9 20 5 11 - - 0.0
19/11:30am 17.8 14.8 4.0 40 6.5 W 9 17 5 9 - - 0.0
19/11:00am 17.8 15.8 6.3 47 5.7 WNW 6 15 3 8 - - 0.0
19/10:30am 17.4 15.5 7.5 52 5.0 WNW 7 11 4 6 - - 0.0
19/10:00am 16.2 13.6 6.1 51 4.9 NW 9 15 5 8 - - 0.0
19/09:30am 15.1 12.4 5.6 53 4.5 WNW 9 17 5 9 - - 0.0
19/09:00am 13.9 11.3 6.0 59 3.8 W 9 13 5 7 - - 0.0
19/08:30am 12.3 9.0 4.5 59 3.5 W 11 17 6 9 - - 0.0
19/08:00am 11.5 8.8 5.8 68 2.6 W 9 15 5 8 - - 0.0
19/07:30am 9.9 7.6 5.7 75 1.9 W 7 13 4 7 - - 0.0
19/07:00am 8.4 6.6 7.3 93 0.5 WNW 6 9 3 5 - - 0.0
19/06:30am 6.8 4.6 6.4 97 0.2 WNW 7 9 4 5 - - 0.0
19/06:00am 6.2 3.9 5.8 97 0.2 WNW 7 11 4 6 - - 0.0
19/05:30am 6.3 5.4 5.9 97 0.2 CALM 0 0 0 0 - - 0.0
19/05:00am 6.4 5.4 5.5 94 0.4 CALM 0 4 0 2 - - 0.0
19/04:30am 6.8 6.0 6.4 97 0.2 CALM 0 0 0 0 - - 0.0
19/04:00am 6.4 4.2 5.5 94 0.4 NW 6 7 3 4 - - 0.0
19/03:30am 6.9 5.9 5.4 90 0.7 CALM 0 0 0 0 - - 0.0
19/03:00am 7.9 6.6 6.2 89 0.8 W 2 6 1 3 - - 0.0
19/02:30am 7.6 6.6 5.7 88 0.9 CALM 0 0 0 0 - - 0.0
19/02:00am 7.8 6.3 6.6 92 0.6 WNW 4 7 2 4 - - 0.0
19/01:30am 8.0 7.3 6.9 93 0.5 CALM 0 0 0 0 - - 0.0
19/01:00am 8.2 7.0 6.5 89 0.8 WNW 2 7 1 4 - - 0.0
19/12:30am 8.7 6.5 6.3 85 1.1 WNW 7 11 4 6 - - 0.0
19/12:00am 9.3 7.1 5.5 77 1.7 WNW 6 7 3 4 - - 0.0
 
Date/Time
EST
Tmp

°C
App
Tmp
°C
Dew
Point
°C
Rel
Hum
%
Delta-T

°C
Wind Press
QNH
hPa
Press
MSL
hPa
Rain
since
9 am
mm
Dir
 
Spd
km/h
Gust
km/h
Spd
kts
Gust
kts
18/11:30pm 9.8 7.6 6.0 77 1.7 NW 7 11 4 6 - - 0.0
18/11:00pm 10.7 8.5 5.5 70 2.4 NW 6 11 3 6 - - 0.0
18/10:30pm 11.3 9.8 5.0 65 2.9 W 2 11 1 6 - - 0.0
18/10:00pm 12.4 10.3 4.1 57 3.7 WNW 4 7 2 4 - - 0.0
18/09:30pm 13.7 10.6 3.8 51 4.5 WNW 9 15 5 8 - - 0.0
18/09:00pm 14.3 11.6 3.5 48 4.9 W 7 11 4 6 - - 0.0
18/08:30pm 14.6 11.5 3.4 47 5.1 WSW 9 17 5 9 - - 0.0
18/08:00pm 14.8 12.2 4.2 49 4.9 WSW 7 11 4 6 - - 0.0
18/07:30pm 14.4 12.2 5.2 54 4.3 S 6 7 3 4 - - 0.0
18/07:00pm 14.4 12.1 5.0 53 4.4 S 6 11 3 6 - - 0.0
18/06:30pm 14.1 11.2 4.7 53 4.4 SSE 9 15 5 8 - - 0.0
18/06:00pm 14.1 11.0 3.6 49 4.8 SSE 9 15 5 8 - - 0.0
18/05:30pm 14.5 11.1 4.2 50 4.7 SE 11 20 6 11 - - 0.0
18/05:00pm 15.1 11.0 4.2 48 5.0 SSE 15 20 8 11 - - 0.0
18/04:30pm 16.0 11.0 3.4 43 5.8 SE 19 26 10 14 - - 0.0
18/04:00pm 16.4 11.5 4.1 44 5.7 SSE 19 26 10 14 - - 0.0
18/03:30pm 16.5 11.9 3.9 43 5.9 SSE 17 28 9 15 - - 0.0
18/03:00pm 17.5 12.5 3.8 40 6.4 SE 19 26 10 14 - - 0.0
18/02:30pm 18.1 13.7 2.8 36 7.0 SE 15 24 8 13 - - 0.0
18/02:00pm 18.2 13.2 1.3 32 7.5 S 17 26 9 14 - - 0.0
18/01:30pm 18.2 13.4 -0.1 29 7.9 SSW 15 32 8 17 - - 0.0
18/01:00pm 18.3 13.4 -0.5 28 8.1 SSW 15 24 8 13 - - 0.0
18/12:30pm 17.6 12.3 -3.2 24 8.4 S 15 28 8 15 - - 0.0
18/12:00pm 17.8 14.0 -0.5 29 7.8 SSW 9 20 5 11 - - 0.0
18/11:30am 17.7 13.6 -0.1 30 7.7 WSW 11 20 6 11 - - 0.0
18/11:00am 17.1 13.3 1.5 35 6.9 SSW 11 20 6 11 - - 0.0
18/10:30am 16.8 12.7 0.0 32 7.2 WSW 11 22 6 12 - - 0.0
18/10:00am 16.1 10.5 -0.2 33 6.9 SW 19 24 10 13 - - 0.0
18/09:30am 15.9 10.8 0.9 36 6.5 W 17 32 9 17 - - 0.0
18/09:00am 15.0 9.8 0.4 37 6.2 W 17 26 9 14 - - 0.0
18/08:30am 14.8 9.7 1.0 39 5.9 W 17 26 9 14 - - 0.0
18/08:00am 14.1 8.7 1.1 41 5.6 W 19 32 10 17 - - 0.0
18/07:30am 13.7 9.7 2.6 47 4.9 WSW 13 26 7 14 - - 0.0
18/07:00am 12.5 8.6 3.2 53 4.1 WSW 13 26 7 14 - - 0.0
18/06:30am 8.6 7.5 5.2 79 1.5 CALM 0 6 0 3 - - 0.0
18/06:00am 8.2 6.4 5.5 83 1.2 NW 4 7 2 4 - - 0.0
18/05:30am 9.0 8.0 5.6 79 1.5 CALM 0 6 0 3 - - 0.0
18/05:00am 10.2 7.7 3.7 64 2.8 S 6 9 3 5 - - 0.0
18/04:30am 9.8 8.2 6.2 78 1.7 SW 4 6 2 3 - - 0.0
18/04:00am 11.0 8.4 4.0 62 3.1 SSW 7 11 4 6 - - 0.0
18/03:30am 10.8 8.4 4.3 64 2.9 SSW 6 7 3 4 - - 0.0
18/03:00am 12.0 9.4 3.3 55 3.8 SW 6 9 3 5 - - 0.0
18/02:30am 11.2 9.3 4.7 64 2.9 W 4 9 2 5 - - 0.0
18/02:00am 11.7 9.2 3.5 57 3.6 WNW 6 11 3 6 - - 0.0
18/01:30am 12.3 9.5 3.0 53 4.1 WNW 7 13 4 7 - - 0.0
18/01:00am 13.0 9.6 3.9 54 4.1 WNW 11 17 6 9 - - 0.0
18/12:30am 13.0 9.5 3.4 52 4.3 WNW 11 19 6 10 - - 0.0
18/12:00am 12.6 9.6 4.1 56 3.8 WNW 9 17 5 9 - - 0.0
 
Date/Time
EST
Tmp

°C
App
Tmp
°C
Dew
Point
°C
Rel
Hum
%
Delta-T

°C
Wind Press
QNH
hPa
Press
MSL
hPa
Rain
since
9 am
mm
Dir
 
Spd
km/h
Gust
km/h
Spd
kts
Gust
kts
17/11:30pm 14.1 10.6 3.6 49 4.8 WNW 11 17 6 9 - - 0.0
17/11:00pm 15.0 11.1 3.2 45 5.3 W 13 20 7 11 - - 0.0
17/10:30pm 14.1 11.6 4.7 53 4.4 W 7 17 4 9 - - 0.0

Latest Capital City Observations: Canberra | Sydney | Melbourne | Brisbane | Adelaide | Perth | Hobart | Darwin

Other Formats:

Comma delimited format used in spreadsheet applications
http://www.bom.gov.au/fwo/IDN60901/IDN60901.95765.axf

JavaScript Object Notation format (JSON) in row-major order
http://www.bom.gov.au/fwo/IDN60901/IDN60901.95765.json